Weather at White Stone Family Practice Heliport

Public forecast

Using degrees Fahrenheit for public forecast. Weather courtesy of forecast.io.

Closest aviation weather report (METAR) to White Stone Family Practice Heliport

Closest report is Middle Peninsula Regional Airport, 19.1 nm (35.3 km) WSW. Retrieved 2020/10/01 20:15 UTC (0 seconds ago):

KFYJ 012015Z AUTO 24005KT 10SM CLR 25/14 A2991 RMK AO1 T02500135

Closest aviation forecast (TAF) to White Stone Family Practice Heliport

Closest forecast is Newport News Williamsburg International Airport, 31.1 nm (57.6 km) S. Retrieved 2020/10/01 18:36 UTC (1 hour ago):

TAF KPHF 011733Z 0118/0218 23006KT P6SM SKC FM012100 19007KT P6SM SKC FM020400 24006KT P6SM SCT150 FM020600 34010KT P6SM BKN040 FM020900 36011G18KT P6SM BKN015 FM021200 35011KT P6SM BKN050 FM021700 35009KT P6SM SCT100